sensor_id;sensor_type;location;lat;lon;timestamp;P1;durP1;ratioP1;P2;durP2;ratioP2
15848;SDS011;8024;48.708;9.394;2023-01-24T00:01:19;13.23;;;10.63;;
15848;SDS011;8024;48.708;9.394;2023-01-24T00:03:47;13.80;;;10.20;;
15848;SDS011;8024;48.708;9.394;2023-01-24T00:06:14;14.23;;;9.57;;
15848;SDS011;8024;48.708;9.394;2023-01-24T00:08:42;14.30;;;10.73;;
15848;SDS011;8024;48.708;9.394;2023-01-24T00:11:09;13.10;;;10.83;;
15848;SDS011;8024;48.708;9.394;2023-01-24T00:13:38;13.03;;;9.47;;
15848;SDS011;8024;48.708;9.394;2023-01-24T00:16:06;16.07;;;11.23;;
15848;SDS011;8024;48.708;9.394;2023-01-24T00:18:35;11.20;;;9.23;;
15848;SDS011;8024;48.708;9.394;2023-01-24T00:21:05;16.53;;;10.83;;
15848;SDS011;8024;48.708;9.394;2023-01-24T00:23:34;13.50;;;10.23;;
15848;SDS011;8024;48.708;9.394;2023-01-24T00:26:02;12.93;;;9.80;;
15848;SDS011;8024;48.708;9.394;2023-01-24T00:28:29;12.50;;;10.27;;
15848;SDS011;8024;48.708;9.394;2023-01-24T00:30:56;12.70;;;9.70;;
15848;SDS011;8024;48.708;9.394;2023-01-24T00:33:24;13.40;;;10.70;;
15848;SDS011;8024;48.708;9.394;2023-01-24T00:35:52;12.77;;;10.63;;
15848;SDS011;8024;48.708;9.394;2023-01-24T00:38:21;12.17;;;9.80;;
15848;SDS011;8024;48.708;9.394;2023-01-24T00:40:48;12.43;;;9.53;;
15848;SDS011;8024;48.708;9.394;2023-01-24T00:43:16;13.37;;;10.43;;
15848;SDS011;8024;48.708;9.394;2023-01-24T00:45:43;13.50;;;10.50;;
15848;SDS011;8024;48.708;9.394;2023-01-24T00:48:11;13.27;;;10.07;;
15848;SDS011;8024;48.708;9.394;2023-01-24T00:50:39;12.53;;;9.73;;
15848;SDS011;8024;48.708;9.394;2023-01-24T00:53:07;12.33;;;8.50;;
15848;SDS011;8024;48.708;9.394;2023-01-24T00:55:41;12.57;;;10.33;;
15848;SDS011;8024;48.708;9.394;2023-01-24T00:58:09;14.80;;;11.07;;
15848;SDS011;8024;48.708;9.394;2023-01-24T01:00:36;14.00;;;10.33;;
15848;SDS011;8024;48.708;9.394;2023-01-24T01:03:04;14.57;;;11.00;;
15848;SDS011;8024;48.708;9.394;2023-01-24T01:05:32;13.80;;;10.00;;
15848;SDS011;8024;48.708;9.394;2023-01-24T01:07:59;15.97;;;11.43;;
15848;SDS011;8024;48.708;9.394;2023-01-24T01:10:26;15.93;;;10.63;;
15848;SDS011;8024;48.708;9.394;2023-01-24T01:12:55;13.50;;;10.40;;
15848;SDS011;8024;48.708;9.394;2023-01-24T01:15:22;15.23;;;11.63;;
15848;SDS011;8024;48.708;9.394;2023-01-24T01:17:50;14.30;;;10.60;;
15848;SDS011;8024;48.708;9.394;2023-01-24T01:20:17;16.40;;;11.83;;
15848;SDS011;8024;48.708;9.394;2023-01-24T01:22:44;14.57;;;10.87;;
15848;SDS011;8024;48.708;9.394;2023-01-24T01:25:11;13.83;;;10.73;;
15848;SDS011;8024;48.708;9.394;2023-01-24T01:27:38;15.90;;;10.97;;
15848;SDS011;8024;48.708;9.394;2023-01-24T01:30:08;16.37;;;10.77;;
15848;SDS011;8024;48.708;9.394;2023-01-24T01:32:35;14.73;;;10.93;;
15848;SDS011;8024;48.708;9.394;2023-01-24T01:35:03;14.20;;;10.33;;
15848;SDS011;8024;48.708;9.394;2023-01-24T01:37:30;13.97;;;10.60;;
15848;SDS011;8024;48.708;9.394;2023-01-24T01:39:57;12.43;;;10.53;;
15848;SDS011;8024;48.708;9.394;2023-01-24T01:42:25;12.97;;;10.57;;
15848;SDS011;8024;48.708;9.394;2023-01-24T01:44:52;13.73;;;10.77;;
15848;SDS011;8024;48.708;9.394;2023-01-24T01:47:25;15.33;;;11.80;;
15848;SDS011;8024;48.708;9.394;2023-01-24T01:49:56;12.60;;;9.87;;
15848;SDS011;8024;48.708;9.394;2023-01-24T01:52:26;14.87;;;11.33;;
15848;SDS011;8024;48.708;9.394;2023-01-24T01:54:57;17.17;;;12.47;;
15848;SDS011;8024;48.708;9.394;2023-01-24T01:57:28;15.67;;;10.93;;
15848;SDS011;8024;48.708;9.394;2023-01-24T01:59:58;13.87;;;10.30;;
15848;SDS011;8024;48.708;9.394;2023-01-24T02:02:29;16.37;;;11.37;;
15848;SDS011;8024;48.708;9.394;2023-01-24T02:04:57;13.57;;;10.80;;
15848;SDS011;8024;48.708;9.394;2023-01-24T02:07:28;14.27;;;10.23;;
15848;SDS011;8024;48.708;9.394;2023-01-24T02:09:57;14.03;;;10.53;;
15848;SDS011;8024;48.708;9.394;2023-01-24T02:12:26;15.00;;;10.43;;
15848;SDS011;8024;48.708;9.394;2023-01-24T02:14:58;15.70;;;12.03;;
15848;SDS011;8024;48.708;9.394;2023-01-24T02:17:47;15.27;;;11.37;;
15848;SDS011;8024;48.708;9.394;2023-01-24T02:20:21;15.07;;;10.80;;
15848;SDS011;8024;48.708;9.394;2023-01-24T02:23:00;16.97;;;10.90;;
15848;SDS011;8024;48.708;9.394;2023-01-24T02:25:37;14.60;;;10.37;;
15848;SDS011;8024;48.708;9.394;2023-01-24T02:28:12;15.50;;;10.83;;
15848;SDS011;8024;48.708;9.394;2023-01-24T02:30:39;15.47;;;10.83;;
15848;SDS011;8024;48.708;9.394;2023-01-24T02:33:10;16.13;;;11.53;;
15848;SDS011;8024;48.708;9.394;2023-01-24T02:35:39;16.00;;;11.43;;
15848;SDS011;8024;48.708;9.394;2023-01-24T02:38:10;13.63;;;9.40;;
15848;SDS011;8024;48.708;9.394;2023-01-24T02:40:42;15.53;;;11.00;;
15848;SDS011;8024;48.708;9.394;2023-01-24T02:43:12;13.43;;;10.63;;
15848;SDS011;8024;48.708;9.394;2023-01-24T02:45:40;14.93;;;11.17;;
15848;SDS011;8024;48.708;9.394;2023-01-24T02:48:07;15.13;;;11.20;;
15848;SDS011;8024;48.708;9.394;2023-01-24T02:50:34;19.17;;;11.60;;
15848;SDS011;8024;48.708;9.394;2023-01-24T02:53:15;15.93;;;11.13;;
15848;SDS011;8024;48.708;9.394;2023-01-24T02:55:55;17.23;;;11.47;;
15848;SDS011;8024;48.708;9.394;2023-01-24T02:58:41;17.53;;;11.43;;
15848;SDS011;8024;48.708;9.394;2023-01-24T03:01:08;13.80;;;10.77;;
15848;SDS011;8024;48.708;9.394;2023-01-24T03:03:36;18.47;;;12.67;;
15848;SDS011;8024;48.708;9.394;2023-01-24T03:06:04;14.60;;;11.87;;
15848;SDS011;8024;48.708;9.394;2023-01-24T03:08:31;14.97;;;11.60;;
15848;SDS011;8024;48.708;9.394;2023-01-24T03:11:00;16.47;;;11.60;;
15848;SDS011;8024;48.708;9.394;2023-01-24T03:13:28;15.33;;;11.43;;
15848;SDS011;8024;48.708;9.394;2023-01-24T03:16:14;13.47;;;9.73;;
15848;SDS011;8024;48.708;9.394;2023-01-24T03:18:59;14.17;;;10.47;;
15848;SDS011;8024;48.708;9.394;2023-01-24T03:21:45;14.63;;;10.77;;
15848;SDS011;8024;48.708;9.394;2023-01-24T03:24:29;16.43;;;11.47;;
15848;SDS011;8024;48.708;9.394;2023-01-24T03:27:15;16.63;;;11.70;;
15848;SDS011;8024;48.708;9.394;2023-01-24T03:30:00;18.57;;;12.37;;
15848;SDS011;8024;48.708;9.394;2023-01-24T03:32:47;16.97;;;12.60;;
15848;SDS011;8024;48.708;9.394;2023-01-24T03:35:32;16.10;;;12.03;;
15848;SDS011;8024;48.708;9.394;2023-01-24T03:38:00;16.50;;;11.63;;
15848;SDS011;8024;48.708;9.394;2023-01-24T03:40:44;18.13;;;12.03;;
15848;SDS011;8024;48.708;9.394;2023-01-24T03:43:13;17.67;;;11.67;;
15848;SDS011;8024;48.708;9.394;2023-01-24T03:45:40;18.20;;;12.23;;
15848;SDS011;8024;48.708;9.394;2023-01-24T03:48:09;15.73;;;11.03;;
15848;SDS011;8024;48.708;9.394;2023-01-24T03:50:38;14.47;;;10.87;;
15848;SDS011;8024;48.708;9.394;2023-01-24T03:53:25;16.37;;;11.40;;
15848;SDS011;8024;48.708;9.394;2023-01-24T03:55:53;18.03;;;13.10;;
15848;SDS011;8024;48.708;9.394;2023-01-24T03:58:22;16.07;;;11.43;;
15848;SDS011;8024;48.708;9.394;2023-01-24T04:00:51;18.97;;;12.20;;
15848;SDS011;8024;48.708;9.394;2023-01-24T04:03:20;14.37;;;10.97;;
15848;SDS011;8024;48.708;9.394;2023-01-24T04:05:48;16.10;;;11.70;;
15848;SDS011;8024;48.708;9.394;2023-01-24T04:08:16;16.97;;;11.13;;
15848;SDS011;8024;48.708;9.394;2023-01-24T04:10:43;18.40;;;11.17;;
15848;SDS011;8024;48.708;9.394;2023-01-24T04:13:11;18.10;;;12.10;;
15848;SDS011;8024;48.708;9.394;2023-01-24T04:15:38;17.27;;;11.53;;
15848;SDS011;8024;48.708;9.394;2023-01-24T04:18:06;18.53;;;12.67;;
15848;SDS011;8024;48.708;9.394;2023-01-24T04:20:35;18.67;;;12.50;;
15848;SDS011;8024;48.708;9.394;2023-01-24T04:23:03;18.30;;;12.63;;
15848;SDS011;8024;48.708;9.394;2023-01-24T04:25:31;17.90;;;12.03;;
15848;SDS011;8024;48.708;9.394;2023-01-24T04:27:59;17.80;;;11.80;;
15848;SDS011;8024;48.708;9.394;2023-01-24T04:30:26;17.87;;;12.30;;
15848;SDS011;8024;48.708;9.394;2023-01-24T04:32:54;15.77;;;11.27;;
15848;SDS011;8024;48.708;9.394;2023-01-24T04:35:22;16.47;;;12.27;;
15848;SDS011;8024;48.708;9.394;2023-01-24T04:37:52;14.67;;;11.60;;
15848;SDS011;8024;48.708;9.394;2023-01-24T04:40:23;21.30;;;12.93;;
15848;SDS011;8024;48.708;9.394;2023-01-24T04:42:50;14.90;;;11.07;;
15848;SDS011;8024;48.708;9.394;2023-01-24T04:45:17;13.23;;;10.63;;
15848;SDS011;8024;48.708;9.394;2023-01-24T04:47:44;14.93;;;11.70;;
15848;SDS011;8024;48.708;9.394;2023-01-24T04:50:11;16.70;;;11.40;;
15848;SDS011;8024;48.708;9.394;2023-01-24T04:52:38;17.67;;;12.43;;
15848;SDS011;8024;48.708;9.394;2023-01-24T04:55:07;15.07;;;12.13;;
15848;SDS011;8024;48.708;9.394;2023-01-24T04:57:34;15.47;;;11.27;;
15848;SDS011;8024;48.708;9.394;2023-01-24T05:00:02;18.63;;;12.20;;
15848;SDS011;8024;48.708;9.394;2023-01-24T05:02:30;16.80;;;11.47;;
15848;SDS011;8024;48.708;9.394;2023-01-24T05:04:57;17.03;;;12.13;;
15848;SDS011;8024;48.708;9.394;2023-01-24T05:07:24;16.03;;;11.47;;
15848;SDS011;8024;48.708;9.394;2023-01-24T05:09:51;16.00;;;11.80;;
15848;SDS011;8024;48.708;9.394;2023-01-24T05:12:20;16.27;;;11.87;;
15848;SDS011;8024;48.708;9.394;2023-01-24T05:14:47;19.37;;;12.53;;
15848;SDS011;8024;48.708;9.394;2023-01-24T05:17:14;16.20;;;11.57;;
15848;SDS011;8024;48.708;9.394;2023-01-24T05:19:41;16.70;;;12.43;;
15848;SDS011;8024;48.708;9.394;2023-01-24T05:22:08;17.10;;;11.60;;
15848;SDS011;8024;48.708;9.394;2023-01-24T05:24:36;18.27;;;11.13;;
15848;SDS011;8024;48.708;9.394;2023-01-24T05:27:03;16.30;;;12.07;;
15848;SDS011;8024;48.708;9.394;2023-01-24T05:29:31;15.10;;;11.63;;
15848;SDS011;8024;48.708;9.394;2023-01-24T05:31:58;15.10;;;11.33;;
15848;SDS011;8024;48.708;9.394;2023-01-24T05:34:25;16.17;;;11.60;;
15848;SDS011;8024;48.708;9.394;2023-01-24T05:36:53;15.87;;;11.17;;
15848;SDS011;8024;48.708;9.394;2023-01-24T05:39:20;16.97;;;11.67;;
15848;SDS011;8024;48.708;9.394;2023-01-24T05:41:47;18.13;;;11.70;;
15848;SDS011;8024;48.708;9.394;2023-01-24T05:44:14;16.17;;;11.80;;
15848;SDS011;8024;48.708;9.394;2023-01-24T05:46:42;17.87;;;12.33;;
15848;SDS011;8024;48.708;9.394;2023-01-24T05:49:10;16.27;;;11.93;;
15848;SDS011;8024;48.708;9.394;2023-01-24T05:51:37;16.00;;;11.97;;
15848;SDS011;8024;48.708;9.394;2023-01-24T05:54:04;16.40;;;12.10;;
15848;SDS011;8024;48.708;9.394;2023-01-24T05:56:31;15.27;;;11.80;;
15848;SDS011;8024;48.708;9.394;2023-01-24T05:58:58;15.93;;;11.57;;
15848;SDS011;8024;48.708;9.394;2023-01-24T06:01:26;16.43;;;12.47;;
15848;SDS011;8024;48.708;9.394;2023-01-24T06:03:55;17.70;;;12.80;;
15848;SDS011;8024;48.708;9.394;2023-01-24T06:06:23;17.90;;;12.30;;
15848;SDS011;8024;48.708;9.394;2023-01-24T06:08:51;18.33;;;12.60;;
15848;SDS011;8024;48.708;9.394;2023-01-24T06:11:19;16.87;;;12.53;;
15848;SDS011;8024;48.708;9.394;2023-01-24T06:13:47;16.30;;;12.30;;
15848;SDS011;8024;48.708;9.394;2023-01-24T06:16:16;16.17;;;12.30;;
15848;SDS011;8024;48.708;9.394;2023-01-24T06:18:44;15.53;;;11.70;;
15848;SDS011;8024;48.708;9.394;2023-01-24T06:21:18;15.40;;;11.50;;
15848;SDS011;8024;48.708;9.394;2023-01-24T06:23:52;14.97;;;11.00;;
15848;SDS011;8024;48.708;9.394;2023-01-24T06:26:20;17.53;;;12.10;;
15848;SDS011;8024;48.708;9.394;2023-01-24T06:28:47;15.37;;;12.17;;
15848;SDS011;8024;48.708;9.394;2023-01-24T06:31:19;16.00;;;11.07;;
15848;SDS011;8024;48.708;9.394;2023-01-24T06:33:58;15.83;;;10.90;;
15848;SDS011;8024;48.708;9.394;2023-01-24T06:36:43;16.53;;;11.73;;
15848;SDS011;8024;48.708;9.394;2023-01-24T06:39:19;18.20;;;13.27;;
15848;SDS011;8024;48.708;9.394;2023-01-24T06:41:47;15.47;;;10.90;;
15848;SDS011;8024;48.708;9.394;2023-01-24T06:44:14;13.37;;;11.10;;
15848;SDS011;8024;48.708;9.394;2023-01-24T06:46:42;16.60;;;12.27;;
15848;SDS011;8024;48.708;9.394;2023-01-24T06:49:09;15.43;;;11.67;;
15848;SDS011;8024;48.708;9.394;2023-01-24T06:51:37;14.23;;;10.90;;
15848;SDS011;8024;48.708;9.394;2023-01-24T06:54:05;15.63;;;11.10;;
15848;SDS011;8024;48.708;9.394;2023-01-24T06:56:33;16.30;;;11.20;;
15848;SDS011;8024;48.708;9.394;2023-01-24T06:59:00;15.20;;;11.43;;
15848;SDS011;8024;48.708;9.394;2023-01-24T07:01:27;13.33;;;10.33;;
15848;SDS011;8024;48.708;9.394;2023-01-24T07:03:54;15.33;;;11.43;;
15848;SDS011;8024;48.708;9.394;2023-01-24T07:06:21;14.90;;;11.20;;
15848;SDS011;8024;48.708;9.394;2023-01-24T07:08:48;14.83;;;11.20;;
15848;SDS011;8024;48.708;9.394;2023-01-24T07:11:17;17.30;;;11.37;;
15848;SDS011;8024;48.708;9.394;2023-01-24T07:13:44;17.97;;;11.37;;
15848;SDS011;8024;48.708;9.394;2023-01-24T07:16:11;16.93;;;11.97;;
15848;SDS011;8024;48.708;9.394;2023-01-24T07:18:39;15.83;;;11.20;;
15848;SDS011;8024;48.708;9.394;2023-01-24T07:21:07;14.27;;;11.13;;
15848;SDS011;8024;48.708;9.394;2023-01-24T07:23:35;14.07;;;10.23;;
15848;SDS011;8024;48.708;9.394;2023-01-24T07:26:03;15.57;;;11.63;;
15848;SDS011;8024;48.708;9.394;2023-01-24T07:28:36;17.63;;;11.23;;
15848;SDS011;8024;48.708;9.394;2023-01-24T07:31:03;18.70;;;11.63;;
15848;SDS011;8024;48.708;9.394;2023-01-24T07:33:31;15.30;;;11.27;;
15848;SDS011;8024;48.708;9.394;2023-01-24T07:35:58;13.93;;;10.93;;
15848;SDS011;8024;48.708;9.394;2023-01-24T07:38:25;13.70;;;9.87;;
15848;SDS011;8024;48.708;9.394;2023-01-24T07:40:53;17.10;;;11.50;;
15848;SDS011;8024;48.708;9.394;2023-01-24T07:43:20;16.47;;;10.70;;
15848;SDS011;8024;48.708;9.394;2023-01-24T07:45:48;13.90;;;9.70;;
15848;SDS011;8024;48.708;9.394;2023-01-24T07:48:15;14.23;;;11.00;;
15848;SDS011;8024;48.708;9.394;2023-01-24T07:50:42;14.73;;;10.37;;
15848;SDS011;8024;48.708;9.394;2023-01-24T07:53:10;16.87;;;11.60;;
15848;SDS011;8024;48.708;9.394;2023-01-24T07:55:37;15.57;;;10.43;;
15848;SDS011;8024;48.708;9.394;2023-01-24T07:58:04;14.67;;;10.70;;
15848;SDS011;8024;48.708;9.394;2023-01-24T08:00:31;12.80;;;10.43;;
15848;SDS011;8024;48.708;9.394;2023-01-24T08:03:00;12.70;;;9.87;;
15848;SDS011;8024;48.708;9.394;2023-01-24T08:05:27;13.40;;;9.70;;
15848;SDS011;8024;48.708;9.394;2023-01-24T08:07:54;14.63;;;10.23;;
15848;SDS011;8024;48.708;9.394;2023-01-24T08:10:21;14.13;;;9.77;;
15848;SDS011;8024;48.708;9.394;2023-01-24T08:12:48;12.80;;;10.13;;
15848;SDS011;8024;48.708;9.394;2023-01-24T08:15:16;14.37;;;11.07;;
15848;SDS011;8024;48.708;9.394;2023-01-24T08:17:43;14.63;;;10.43;;
15848;SDS011;8024;48.708;9.394;2023-01-24T08:20:12;14.80;;;11.03;;
15848;SDS011;8024;48.708;9.394;2023-01-24T08:22:40;13.30;;;10.17;;
15848;SDS011;8024;48.708;9.394;2023-01-24T08:25:07;14.37;;;10.50;;
15848;SDS011;8024;48.708;9.394;2023-01-24T08:27:35;14.97;;;10.60;;
15848;SDS011;8024;48.708;9.394;2023-01-24T08:30:06;13.87;;;9.67;;
15848;SDS011;8024;48.708;9.394;2023-01-24T08:32:35;14.20;;;10.63;;
15848;SDS011;8024;48.708;9.394;2023-01-24T08:35:03;13.00;;;9.83;;
15848;SDS011;8024;48.708;9.394;2023-01-24T08:37:32;14.13;;;10.03;;
15848;SDS011;8024;48.708;9.394;2023-01-24T08:39:59;14.70;;;10.53;;
15848;SDS011;8024;48.708;9.394;2023-01-24T08:42:26;12.97;;;10.40;;
15848;SDS011;8024;48.708;9.394;2023-01-24T08:44:53;17.30;;;10.67;;
15848;SDS011;8024;48.708;9.394;2023-01-24T08:47:20;14.30;;;10.20;;
15848;SDS011;8024;48.708;9.394;2023-01-24T08:49:48;12.77;;;9.13;;
15848;SDS011;8024;48.708;9.394;2023-01-24T08:52:15;13.40;;;9.83;;
15848;SDS011;8024;48.708;9.394;2023-01-24T08:54:44;12.70;;;9.50;;
15848;SDS011;8024;48.708;9.394;2023-01-24T08:57:11;15.13;;;10.57;;
15848;SDS011;8024;48.708;9.394;2023-01-24T08:59:38;13.43;;;9.80;;
15848;SDS011;8024;48.708;9.394;2023-01-24T09:02:05;12.97;;;9.70;;
15848;SDS011;8024;48.708;9.394;2023-01-24T09:04:34;16.23;;;10.67;;
15848;SDS011;8024;48.708;9.394;2023-01-24T09:07:01;12.03;;;8.70;;
15848;SDS011;8024;48.708;9.394;2023-01-24T09:09:28;12.97;;;8.73;;
15848;SDS011;8024;48.708;9.394;2023-01-24T09:11:57;11.50;;;8.80;;
15848;SDS011;8024;48.708;9.394;2023-01-24T09:14:24;14.33;;;8.73;;
15848;SDS011;8024;48.708;9.394;2023-01-24T09:16:51;17.03;;;9.93;;
15848;SDS011;8024;48.708;9.394;2023-01-24T09:19:18;9.73;;;8.67;;
15848;SDS011;8024;48.708;9.394;2023-01-24T09:21:45;12.03;;;8.67;;
15848;SDS011;8024;48.708;9.394;2023-01-24T09:24:17;12.60;;;8.97;;
15848;SDS011;8024;48.708;9.394;2023-01-24T09:26:44;13.13;;;9.07;;
15848;SDS011;8024;48.708;9.394;2023-01-24T09:29:12;13.73;;;9.27;;
15848;SDS011;8024;48.708;9.394;2023-01-24T09:31:40;12.00;;;8.73;;
15848;SDS011;8024;48.708;9.394;2023-01-24T09:34:07;11.80;;;8.53;;
15848;SDS011;8024;48.708;9.394;2023-01-24T09:36:34;10.50;;;8.87;;
15848;SDS011;8024;48.708;9.394;2023-01-24T09:39:01;13.07;;;9.40;;
15848;SDS011;8024;48.708;9.394;2023-01-24T09:41:36;11.67;;;8.60;;
15848;SDS011;8024;48.708;9.394;2023-01-24T09:44:11;11.83;;;8.87;;
15848;SDS011;8024;48.708;9.394;2023-01-24T09:46:47;12.47;;;8.90;;
15848;SDS011;8024;48.708;9.394;2023-01-24T09:49:19;12.00;;;7.80;;
15848;SDS011;8024;48.708;9.394;2023-01-24T09:51:51;10.63;;;7.80;;
15848;SDS011;8024;48.708;9.394;2023-01-24T09:54:22;11.03;;;8.00;;
15848;SDS011;8024;48.708;9.394;2023-01-24T09:56:57;13.30;;;8.43;;
15848;SDS011;8024;48.708;9.394;2023-01-24T09:59:30;13.50;;;9.40;;
15848;SDS011;8024;48.708;9.394;2023-01-24T10:02:05;13.43;;;9.60;;
15848;SDS011;8024;48.708;9.394;2023-01-24T10:04:41;12.90;;;8.77;;
15848;SDS011;8024;48.708;9.394;2023-01-24T10:07:21;13.43;;;9.40;;
15848;SDS011;8024;48.708;9.394;2023-01-24T10:10:12;12.93;;;9.37;;
15848;SDS011;8024;48.708;9.394;2023-01-24T10:12:47;11.63;;;7.73;;
15848;SDS011;8024;48.708;9.394;2023-01-24T10:15:27;13.17;;;8.50;;
15848;SDS011;8024;48.708;9.394;2023-01-24T10:21:09;12.93;;;8.30;;
15848;SDS011;8024;48.708;9.394;2023-01-24T10:23:43;10.80;;;7.53;;
15848;SDS011;8024;48.708;9.394;2023-01-24T10:26:15;11.03;;;8.20;;
15848;SDS011;8024;48.708;9.394;2023-01-24T10:28:45;14.13;;;8.27;;
15848;SDS011;8024;48.708;9.394;2023-01-24T10:31:19;11.33;;;8.97;;
15848;SDS011;8024;48.708;9.394;2023-01-24T10:33:50;10.83;;;8.60;;
15848;SDS011;8024;48.708;9.394;2023-01-24T10:36:24;10.20;;;8.20;;
15848;SDS011;8024;48.708;9.394;2023-01-24T10:38:58;11.97;;;8.40;;
15848;SDS011;8024;48.708;9.394;2023-01-24T10:41:26;10.40;;;8.57;;
15848;SDS011;8024;48.708;9.394;2023-01-24T10:43:58;13.23;;;8.10;;
15848;SDS011;8024;48.708;9.394;2023-01-24T10:46:34;12.00;;;8.90;;
15848;SDS011;8024;48.708;9.394;2023-01-24T10:49:31;12.27;;;8.40;;
15848;SDS011;8024;48.708;9.394;2023-01-24T10:52:13;12.03;;;8.67;;
15848;SDS011;8024;48.708;9.394;2023-01-24T10:54:46;10.67;;;8.17;;
15848;SDS011;8024;48.708;9.394;2023-01-24T11:00:06;11.33;;;8.47;;
15848;SDS011;8024;48.708;9.394;2023-01-24T11:02:47;12.00;;;8.83;;
15848;SDS011;8024;48.708;9.394;2023-01-24T11:05:17;10.37;;;8.47;;
15848;SDS011;8024;48.708;9.394;2023-01-24T11:07:46;9.80;;;7.97;;
15848;SDS011;8024;48.708;9.394;2023-01-24T11:10:18;11.83;;;7.93;;
15848;SDS011;8024;48.708;9.394;2023-01-24T11:12:48;12.73;;;8.57;;
15848;SDS011;8024;48.708;9.394;2023-01-24T11:15:18;10.17;;;8.07;;
15848;SDS011;8024;48.708;9.394;2023-01-24T11:17:55;10.83;;;7.57;;
15848;SDS011;8024;48.708;9.394;2023-01-24T11:20:27;9.70;;;7.30;;
15848;SDS011;8024;48.708;9.394;2023-01-24T11:23:01;11.20;;;8.23;;
15848;SDS011;8024;48.708;9.394;2023-01-24T11:25:32;11.00;;;7.57;;
15848;SDS011;8024;48.708;9.394;2023-01-24T11:27:59;9.37;;;7.53;;
15848;SDS011;8024;48.708;9.394;2023-01-24T11:30:26;9.60;;;7.50;;
15848;SDS011;8024;48.708;9.394;2023-01-24T11:33:05;10.63;;;7.57;;
15848;SDS011;8024;48.708;9.394;2023-01-24T11:35:42;8.73;;;6.73;;
15848;SDS011;8024;48.708;9.394;2023-01-24T11:38:15;10.80;;;7.40;;
15848;SDS011;8024;48.708;9.394;2023-01-24T11:40:52;10.03;;;6.93;;
15848;SDS011;8024;48.708;9.394;2023-01-24T11:43:40;8.83;;;7.07;;
15848;SDS011;8024;48.708;9.394;2023-01-24T11:46:32;11.37;;;7.57;;
15848;SDS011;8024;48.708;9.394;2023-01-24T11:49:19;10.30;;;8.10;;
15848;SDS011;8024;48.708;9.394;2023-01-24T11:52:07;9.93;;;8.00;;
15848;SDS011;8024;48.708;9.394;2023-01-24T11:54:57;12.03;;;7.13;;
15848;SDS011;8024;48.708;9.394;2023-01-24T11:57:33;10.50;;;7.33;;
15848;SDS011;8024;48.708;9.394;2023-01-24T12:00:18;9.00;;;7.40;;
15848;SDS011;8024;48.708;9.394;2023-01-24T12:02:59;10.23;;;7.20;;
15848;SDS011;8024;48.708;9.394;2023-01-24T12:05:57;9.47;;;7.00;;
15848;SDS011;8024;48.708;9.394;2023-01-24T12:08:38;10.27;;;7.80;;
15848;SDS011;8024;48.708;9.394;2023-01-24T12:11:20;9.47;;;6.87;;
15848;SDS011;8024;48.708;9.394;2023-01-24T12:13:56;9.60;;;7.53;;
15848;SDS011;8024;48.708;9.394;2023-01-24T12:16:38;8.10;;;7.03;;
15848;SDS011;8024;48.708;9.394;2023-01-24T12:19:34;10.20;;;6.80;;
15848;SDS011;8024;48.708;9.394;2023-01-24T12:22:14;9.07;;;7.43;;
15848;SDS011;8024;48.708;9.394;2023-01-24T12:24:43;9.87;;;6.77;;
15848;SDS011;8024;48.708;9.394;2023-01-24T12:27:17;7.93;;;7.00;;
15848;SDS011;8024;48.708;9.394;2023-01-24T12:29:48;9.77;;;6.80;;
15848;SDS011;8024;48.708;9.394;2023-01-24T12:32:22;9.57;;;7.83;;
15848;SDS011;8024;48.708;9.394;2023-01-24T12:34:54;11.50;;;7.40;;
15848;SDS011;8024;48.708;9.394;2023-01-24T12:37:30;7.83;;;6.53;;
15848;SDS011;8024;48.708;9.394;2023-01-24T12:40:02;9.73;;;7.20;;
15848;SDS011;8024;48.708;9.394;2023-01-24T12:42:46;7.80;;;6.57;;
15848;SDS011;8024;48.708;9.394;2023-01-24T12:45:22;8.43;;;6.73;;
15848;SDS011;8024;48.708;9.394;2023-01-24T12:47:55;9.30;;;6.60;;
15848;SDS011;8024;48.708;9.394;2023-01-24T12:50:28;6.27;;;5.67;;
15848;SDS011;8024;48.708;9.394;2023-01-24T12:53:03;7.77;;;6.43;;
15848;SDS011;8024;48.708;9.394;2023-01-24T12:55:37;7.70;;;6.17;;
15848;SDS011;8024;48.708;9.394;2023-01-24T12:58:09;8.73;;;6.27;;
15848;SDS011;8024;48.708;9.394;2023-01-24T13:00:42;7.60;;;6.70;;
15848;SDS011;8024;48.708;9.394;2023-01-24T13:03:33;8.80;;;7.30;;
15848;SDS011;8024;48.708;9.394;2023-01-24T13:06:20;6.83;;;6.13;;
15848;SDS011;8024;48.708;9.394;2023-01-24T13:08:57;8.60;;;5.87;;
15848;SDS011;8024;48.708;9.394;2023-01-24T13:11:32;8.87;;;6.07;;
15848;SDS011;8024;48.708;9.394;2023-01-24T13:14:07;6.93;;;6.23;;
15848;SDS011;8024;48.708;9.394;2023-01-24T13:19:34;11.33;;;7.10;;
15848;SDS011;8024;48.708;9.394;2023-01-24T13:22:10;9.17;;;6.57;;
15848;SDS011;8024;48.708;9.394;2023-01-24T13:24:57;7.60;;;6.27;;
15848;SDS011;8024;48.708;9.394;2023-01-24T13:27:36;10.07;;;7.70;;
15848;SDS011;8024;48.708;9.394;2023-01-24T13:30:13;8.90;;;6.50;;
15848;SDS011;8024;48.708;9.394;2023-01-24T13:32:47;8.97;;;6.97;;
15848;SDS011;8024;48.708;9.394;2023-01-24T13:35:17;9.60;;;7.00;;
15848;SDS011;8024;48.708;9.394;2023-01-24T13:37:50;7.43;;;6.43;;
15848;SDS011;8024;48.708;9.394;2023-01-24T13:40:20;8.07;;;6.20;;
15848;SDS011;8024;48.708;9.394;2023-01-24T13:42:51;8.23;;;5.83;;
15848;SDS011;8024;48.708;9.394;2023-01-24T13:54:18;7.00;;;5.73;;
15848;SDS011;8024;48.708;9.394;2023-01-24T13:57:24;7.17;;;5.57;;
15848;SDS011;8024;48.708;9.394;2023-01-24T14:02:57;9.23;;;6.83;;
15848;SDS011;8024;48.708;9.394;2023-01-24T14:05:34;8.70;;;6.17;;
15848;SDS011;8024;48.708;9.394;2023-01-24T14:08:14;7.60;;;5.93;;
15848;SDS011;8024;48.708;9.394;2023-01-24T14:11:09;8.57;;;6.40;;
15848;SDS011;8024;48.708;9.394;2023-01-24T14:13:53;9.20;;;6.47;;
15848;SDS011;8024;48.708;9.394;2023-01-24T14:19:25;6.83;;;5.97;;
15848;SDS011;8024;48.708;9.394;2023-01-24T14:22:00;8.73;;;7.43;;
15848;SDS011;8024;48.708;9.394;2023-01-24T14:24:32;8.80;;;7.07;;
15848;SDS011;8024;48.708;9.394;2023-01-24T14:27:04;10.63;;;6.87;;
15848;SDS011;8024;48.708;9.394;2023-01-24T14:29:45;8.90;;;7.47;;
15848;SDS011;8024;48.708;9.394;2023-01-24T14:32:18;9.23;;;7.37;;
15848;SDS011;8024;48.708;9.394;2023-01-24T14:34:50;8.30;;;7.27;;
15848;SDS011;8024;48.708;9.394;2023-01-24T14:37:25;10.00;;;7.33;;
15848;SDS011;8024;48.708;9.394;2023-01-24T14:42:36;7.73;;;6.83;;
15848;SDS011;8024;48.708;9.394;2023-01-24T14:45:05;11.07;;;8.23;;
15848;SDS011;8024;48.708;9.394;2023-01-24T14:47:39;10.57;;;8.50;;
15848;SDS011;8024;48.708;9.394;2023-01-24T14:50:18;10.93;;;7.90;;
15848;SDS011;8024;48.708;9.394;2023-01-24T14:52:48;11.83;;;7.83;;
15848;SDS011;8024;48.708;9.394;2023-01-24T14:58:19;9.87;;;7.53;;
15848;SDS011;8024;48.708;9.394;2023-01-24T15:00:49;12.27;;;8.30;;
15848;SDS011;8024;48.708;9.394;2023-01-24T15:03:20;9.60;;;7.93;;
15848;SDS011;8024;48.708;9.394;2023-01-24T15:05:54;11.37;;;7.50;;
15848;SDS011;8024;48.708;9.394;2023-01-24T15:08:25;11.43;;;7.50;;
15848;SDS011;8024;48.708;9.394;2023-01-24T15:10:54;11.23;;;7.53;;
15848;SDS011;8024;48.708;9.394;2023-01-24T15:13:28;11.17;;;8.10;;
15848;SDS011;8024;48.708;9.394;2023-01-24T15:15:58;11.90;;;8.33;;
15848;SDS011;8024;48.708;9.394;2023-01-24T15:18:29;9.17;;;7.03;;
15848;SDS011;8024;48.708;9.394;2023-01-24T15:21:03;11.10;;;7.83;;
15848;SDS011;8024;48.708;9.394;2023-01-24T15:23:31;12.07;;;8.93;;
15848;SDS011;8024;48.708;9.394;2023-01-24T15:28:47;16.77;;;12.27;;
15848;SDS011;8024;48.708;9.394;2023-01-24T15:31:18;14.63;;;11.40;;
15848;SDS011;8024;48.708;9.394;2023-01-24T15:33:47;11.77;;;8.87;;
15848;SDS011;8024;48.708;9.394;2023-01-24T15:36:22;10.23;;;7.47;;
15848;SDS011;8024;48.708;9.394;2023-01-24T15:38:50;14.33;;;10.20;;
15848;SDS011;8024;48.708;9.394;2023-01-24T15:41:20;13.03;;;9.07;;